Cyclone, Texas
Current Conditions -  °F | °C
As of 2:15 PM on Thursday 30 Oct 2014 (Local Time) from KT35 Reporting Station
Scattered Clouds Scattered Clouds  
Wind Chill: 76°   Ceiling: Unl
Heat Index: 76°   Visibility: 10mi
Dew Point: 53°   Wind: 0mph
Humidity: 45%   Direction: NA
Pressure: 30.1"   Gusts: NA
Location:  30.9882°N, 97.103°W
Report Text: KT35 301915Z AUTO 00000KT 10SM SCT049 24/12 A3010 RMK AO2 T02440116
Loading
Personal Weather Stations






























Interactive Weather Map New forecast layout! Learn more

10-Day Weather Forecast

Advertisements
Track Severe Weather on mobile